Time;durP1;ratioP1;P1;durP2;ratioP2;P2;SDS_P1;SDS_P2;PMS_P1;PMS_P2;Temp;Humidity;BMP_temperature;BMP_pressure;BME280_temperature;BME280_humidity;BME280_pressure;Samples;Min_cycle;Max_cycle;Signal;HPM_P1;HPM_P2
2023/04/16 00:01:47;;;;;;;2.88;0.63;;;;;14.70;102015.00;;;;5048406;28;20198;-76
2023/04/16 00:04:15;;;;;;;2.97;0.60;;;;;14.70;102017.00;;;;5048269;28;20559;-76
2023/04/16 00:06:42;;;;;;;1.63;0.50;;;;;14.70;102021.00;;;;5051651;28;20195;-76
2023/04/16 00:09:10;;;;;;;2.95;0.80;;;;;14.70;102020.00;;;;5051706;28;20211;-76
2023/04/16 00:11:38;;;;;;;2.35;0.70;;;;;14.70;102020.00;;;;5050032;28;20192;-76
2023/04/16 00:14:05;;;;;;;1.55;0.57;;;;;14.70;102015.00;;;;5058538;28;20218;-76
2023/04/16 00:16:33;;;;;;;2.80;0.75;;;;;14.70;102016.00;;;;5056098;28;20215;-76
2023/04/16 00:19:01;;;;;;;1.45;0.70;;;;;14.70;102015.00;;;;5063879;28;20202;-76
2023/04/16 00:21:29;;;;;;;2.78;0.88;;;;;14.80;102021.00;;;;5067474;28;20199;-75
2023/04/16 00:23:57;;;;;;;1.73;0.90;;;;;14.80;102019.00;;;;5063939;28;20218;-75
2023/04/16 00:26:24;;;;;;;5.13;0.93;;;;;14.80;102020.00;;;;5063139;28;20195;-76
2023/04/16 00:28:51;;;;;;;3.30;0.80;;;;;14.80;102015.00;;;;5056843;28;20211;-76
2023/04/16 00:31:25;;;;;;;1.85;0.60;;;;;14.80;102021.00;;;;5067238;28;20206;-76
2023/04/16 00:33:53;;;;;;;1.67;0.57;;;;;14.80;102020.00;;;;5053027;28;20707;-75
2023/04/16 00:36:21;;;;;;;2.63;0.80;;;;;14.70;102022.00;;;;5048515;28;20191;-75
2023/04/16 00:38:49;;;;;;;3.47;1.00;;;;;14.70;102022.00;;;;5054122;28;20192;-75
2023/04/16 00:41:16;;;;;;;3.38;0.73;;;;;14.70;102027.00;;;;5052754;28;20210;-76
2023/04/16 00:43:43;;;;;;;1.55;0.65;;;;;14.70;102024.00;;;;5051086;28;20297;-75
2023/04/16 00:46:11;;;;;;;0.93;0.50;;;;;14.70;102014.00;;;;5061398;28;21037;-75
2023/04/16 00:48:39;;;;;;;3.22;0.90;;;;;14.70;102015.00;;;;5055016;28;20581;-75
2023/04/16 00:51:08;;;;;;;1.65;0.70;;;;;14.70;102014.00;;;;5049350;28;20204;-75
2023/04/16 00:53:38;;;;;;;2.67;0.85;;;;;14.70;102010.00;;;;5054430;28;20219;-76
2023/04/16 00:56:07;;;;;;;3.15;0.80;;;;;14.70;102012.00;;;;5057112;28;20199;-76
2023/04/16 00:58:35;;;;;;;3.40;0.88;;;;;14.70;102010.00;;;;5064569;28;20211;-76
2023/04/16 01:01:02;;;;;;;2.22;0.75;;;;;14.70;102000.00;;;;5055440;28;20204;-75
2023/04/16 01:03:38;;;;;;;1.73;0.63;;;;;14.70;102011.00;;;;5050517;28;20195;-76
2023/04/16 01:06:06;;;;;;;6.18;0.70;;;;;14.70;102012.00;;;;5067162;28;20206;-76
2023/04/16 01:08:33;;;;;;;1.95;0.70;;;;;14.70;102017.00;;;;5059238;28;21001;-76
2023/04/16 01:11:03;;;;;;;2.80;0.82;;;;;14.70;102010.00;;;;5059401;28;20223;-76
2023/04/16 01:13:30;;;;;;;5.57;0.88;;;;;14.70;102024.00;;;;5064060;28;20693;-76
2023/04/16 01:15:57;;;;;;;3.30;0.88;;;;;14.70;102019.00;;;;5051439;28;20697;-76
2023/04/16 01:18:28;;;;;;;1.70;1.10;;;;;14.70;102011.00;;;;5057549;28;20250;-76
2023/04/16 01:20:56;;;;;;;3.45;1.10;;;;;14.70;102020.00;;;;5057844;28;20206;-75
2023/04/16 01:23:23;;;;;;;5.70;1.10;;;;;14.70;102011.00;;;;5050269;28;20204;-76
2023/04/16 01:25:51;;;;;;;2.53;0.77;;;;;14.70;102011.00;;;;5049856;28;20200;-76
2023/04/16 01:28:18;;;;;;;3.08;0.90;;;;;14.70;102020.00;;;;5059022;28;20207;-76
2023/04/16 01:30:46;;;;;;;1.25;1.00;;;;;14.70;102015.00;;;;5053499;28;21052;-76
2023/04/16 01:33:14;;;;;;;3.25;0.80;;;;;14.70;102024.00;;;;5070303;28;20195;-76
2023/04/16 01:35:41;;;;;;;1.90;0.85;;;;;14.70;102024.00;;;;5069473;28;20202;-76
2023/04/16 01:38:10;;;;;;;2.55;1.20;;;;;14.70;102021.00;;;;5058594;28;20205;-75
2023/04/16 01:40:38;;;;;;;1.70;0.90;;;;;14.70;102022.00;;;;5051086;28;20195;-76
2023/04/16 01:43:06;;;;;;;2.17;1.23;;;;;14.70;102024.00;;;;5064899;28;20199;-75
2023/04/16 01:45:34;;;;;;;4.30;1.30;;;;;14.70;102027.00;;;;5051235;28;20200;-75
2023/04/16 01:48:02;;;;;;;4.65;1.10;;;;;14.70;102020.00;;;;5049499;28;20199;-76
2023/04/16 01:50:30;;;;;;;6.10;1.60;;;;;14.70;102023.00;;;;5049712;28;20699;-76
2023/04/16 01:52:58;;;;;;;4.85;1.95;;;;;14.70;102023.00;;;;5053740;28;20191;-76
2023/04/16 01:55:27;;;;;;;4.18;1.48;;;;;14.60;102017.00;;;;5067318;28;20226;-75
2023/04/16 01:57:55;;;;;;;3.88;1.42;;;;;14.70;102025.00;;;;5064481;28;20211;-75
2023/04/16 02:00:22;;;;;;;5.57;1.85;;;;;14.60;102024.00;;;;5069414;28;21494;-76
2023/04/16 02:02:49;;;;;;;3.63;1.55;;;;;14.70;102022.00;;;;5068743;28;20206;-75
2023/04/16 02:05:17;;;;;;;3.97;1.77;;;;;14.70;102018.00;;;;5060468;28;20191;-75
2023/04/16 02:07:44;;;;;;;4.65;1.50;;;;;14.70;102027.00;;;;5056339;28;20579;-76
2023/04/16 02:10:12;;;;;;;2.58;1.83;;;;;14.70;102032.00;;;;5051897;28;20196;-76
2023/04/16 02:12:40;;;;;;;4.80;1.88;;;;;14.60;102017.00;;;;5050036;28;20204;-76
2023/04/16 02:15:09;;;;;;;4.43;2.30;;;;;14.60;102025.00;;;;5061665;28;20219;-76
2023/04/16 02:17:36;;;;;;;5.00;2.10;;;;;14.60;102025.00;;;;5058763;28;20188;-75
2023/04/16 02:20:06;;;;;;;6.20;2.10;;;;;14.60;102019.00;;;;5051379;28;20199;-76
2023/04/16 02:22:34;;;;;;;4.38;2.20;;;;;14.60;102022.00;;;;5060441;28;20580;-76
2023/04/16 02:25:01;;;;;;;4.75;2.22;;;;;14.60;102017.00;;;;5052409;28;20292;-75
2023/04/16 02:27:28;;;;;;;7.03;2.25;;;;;14.60;102026.00;;;;5048184;28;20653;-75
2023/04/16 02:29:57;;;;;;;6.07;2.00;;;;;14.60;102021.00;;;;5066847;28;20325;-75
2023/04/16 02:32:24;;;;;;;3.53;2.03;;;;;14.70;102023.00;;;;5065927;28;20205;-75
2023/04/16 02:34:52;;;;;;;3.95;2.40;;;;;14.70;102025.00;;;;5048027;28;20585;-76
2023/04/16 02:37:19;;;;;;;5.65;2.38;;;;;14.70;102026.00;;;;5057959;28;20199;-75
2023/04/16 02:39:48;;;;;;;4.78;2.10;;;;;14.70;102028.00;;;;5051589;28;20199;-76
2023/04/16 02:42:16;;;;;;;3.90;2.25;;;;;14.70;102024.00;;;;5048117;28;20203;-76
2023/04/16 02:44:43;;;;;;;2.42;1.75;;;;;14.70;102024.00;;;;5048358;28;20204;-76
2023/04/16 02:47:12;;;;;;;5.57;2.20;;;;;14.70;102034.00;;;;5049621;28;20198;-75
2023/04/16 02:49:39;;;;;;;5.22;2.55;;;;;14.70;102029.00;;;;5051098;28;20674;-76
2023/04/16 02:52:06;;;;;;;5.07;1.90;;;;;14.70;102029.00;;;;5061723;28;20202;-76
2023/04/16 02:54:33;;;;;;;7.90;2.35;;;;;14.70;102037.00;;;;5069075;28;20227;-76
2023/04/16 02:57:02;;;;;;;6.10;2.55;;;;;14.70;102040.00;;;;5051334;28;20204;-76
2023/04/16 02:59:29;;;;;;;3.63;2.30;;;;;14.70;102035.00;;;;5050442;28;20202;-76
2023/04/16 03:01:56;;;;;;;6.80;2.28;;;;;14.70;102034.00;;;;5047965;28;20282;-75
2023/04/16 03:04:25;;;;;;;5.05;2.30;;;;;14.70;102037.00;;;;5048268;28;20207;-76
2023/04/16 03:06:52;;;;;;;3.47;1.98;;;;;14.70;102036.00;;;;5062309;28;20225;-76
2023/04/16 03:09:20;;;;;;;4.88;2.10;;;;;14.70;102037.00;;;;5055480;28;20192;-76
2023/04/16 03:11:47;;;;;;;4.82;2.38;;;;;14.70;102035.00;;;;5066341;28;20210;-76
2023/04/16 03:14:14;;;;;;;5.30;1.90;;;;;14.70;102039.00;;;;5066596;28;20222;-77
2023/04/16 03:16:41;;;;;;;3.55;1.88;;;;;14.70;102043.00;;;;5053485;28;20226;-76
2023/04/16 03:19:09;;;;;;;4.45;2.17;;;;;14.70;102042.00;;;;5056631;28;20202;-76
2023/04/16 03:21:38;;;;;;;3.72;1.92;;;;;14.70;102042.00;;;;5059917;28;20195;-76
2023/04/16 03:24:05;;;;;;;5.72;1.98;;;;;14.80;102042.00;;;;5048564;28;20218;-76
2023/04/16 03:26:32;;;;;;;7.00;2.00;;;;;14.80;102052.00;;;;5050865;28;20205;-76
2023/04/16 03:29:00;;;;;;;3.33;1.92;;;;;14.80;102040.00;;;;5053774;28;20228;-76
2023/04/16 03:31:29;;;;;;;5.80;2.28;;;;;14.80;102044.00;;;;5065681;28;20209;-75
2023/04/16 03:33:56;;;;;;;6.95;2.78;;;;;14.80;102046.00;;;;5067469;28;20209;-75
2023/04/16 03:36:24;;;;;;;4.53;2.25;;;;;14.80;102050.00;;;;5057482;28;20200;-75
2023/04/16 03:38:52;;;;;;;5.15;2.42;;;;;14.80;102050.00;;;;5061142;28;20203;-74
2023/04/16 03:41:20;;;;;;;3.10;2.22;;;;;14.80;102054.00;;;;5048514;28;20649;-74
2023/04/16 03:43:47;;;;;;;5.53;2.03;;;;;14.70;102055.00;;;;5047749;28;20783;-75
2023/04/16 03:46:14;;;;;;;5.22;2.03;;;;;14.70;102060.00;;;;5052007;28;20195;-75
2023/04/16 03:48:42;;;;;;;5.10;2.65;;;;;14.70;102059.00;;;;5053955;28;20232;-74
2023/04/16 03:51:09;;;;;;;3.42;2.88;;;;;14.80;102052.00;;;;5053544;28;20197;-75
2023/04/16 03:53:36;;;;;;;4.97;2.15;;;;;14.80;102056.00;;;;5048254;28;20188;-76
2023/04/16 03:56:05;;;;;;;5.63;2.65;;;;;14.80;102060.00;;;;5047805;28;20220;-76
2023/04/16 03:58:33;;;;;;;6.70;2.97;;;;;14.80;102052.00;;;;5047463;28;20270;-75
2023/04/16 04:01:00;;;;;;;7.43;3.03;;;;;14.80;102062.00;;;;5047869;28;20203;-76
2023/04/16 04:03:27;;;;;;;5.43;2.55;;;;;14.80;102055.00;;;;5049191;28;20195;-75
2023/04/16 04:05:55;;;;;;;6.95;2.72;;;;;14.80;102052.00;;;;5060880;28;20214;-76
2023/04/16 04:08:22;;;;;;;5.63;2.67;;;;;14.80;102061.00;;;;5062401;28;20206;-75
2023/04/16 04:10:50;;;;;;;6.50;2.10;;;;;14.80;102064.00;;;;5053344;28;20192;-76
2023/04/16 04:13:19;;;;;;;7.88;2.78;;;;;14.80;102059.00;;;;5050710;28;20203;-75
2023/04/16 04:15:50;;;;;;;7.00;2.28;;;;;14.80;102058.00;;;;5052101;28;20238;-76
2023/04/16 04:18:20;;;;;;;6.40;3.28;;;;;14.80;102058.00;;;;5052018;28;20724;-76
2023/04/16 04:20:47;;;;;;;4.95;2.28;;;;;14.80;102062.00;;;;5054271;28;20206;-76
2023/04/16 04:23:15;;;;;;;5.07;2.90;;;;;14.80;102059.00;;;;5071403;28;20190;-76
2023/04/16 04:25:42;;;;;;;4.63;2.58;;;;;14.90;102062.00;;;;5055727;28;20598;-76
2023/04/16 04:28:09;;;;;;;6.63;2.97;;;;;14.80;102049.00;;;;5051116;28;20195;-76
2023/04/16 04:30:38;;;;;;;7.85;3.22;;;;;14.80;102069.00;;;;5054733;28;20231;-76
2023/04/16 04:33:05;;;;;;;6.55;2.72;;;;;14.80;102074.00;;;;5051471;28;20194;-76
2023/04/16 04:35:34;;;;;;;6.40;2.92;;;;;14.80;102064.00;;;;5053959;28;20561;-75
2023/04/16 04:38:02;;;;;;;5.32;2.63;;;;;14.80;102077.00;;;;5065089;28;20210;-75
2023/04/16 04:40:30;;;;;;;5.60;2.97;;;;;14.90;102074.00;;;;5068569;28;20251;-75
2023/04/16 04:42:57;;;;;;;4.97;2.97;;;;;14.90;102079.00;;;;5062087;28;20265;-76
2023/04/16 04:45:25;;;;;;;5.00;2.90;;;;;14.80;102083.00;;;;5052418;28;20203;-76
2023/04/16 04:47:54;;;;;;;6.30;2.78;;;;;14.80;102078.00;;;;5050511;28;20231;-75
2023/04/16 04:50:22;;;;;;;7.72;3.28;;;;;14.80;102079.00;;;;5056024;28;20201;-75
2023/04/16 04:52:49;;;;;;;5.53;3.35;;;;;14.90;102089.00;;;;5064583;28;20192;-74
2023/04/16 04:55:16;;;;;;;5.68;3.00;;;;;14.90;102084.00;;;;5054257;28;20224;-75
2023/04/16 04:57:44;;;;;;;7.47;3.40;;;;;14.90;102087.00;;;;5051074;28;20210;-75
2023/04/16 05:00:11;;;;;;;5.80;3.05;;;;;14.80;102083.00;;;;5059795;28;20204;-76
2023/04/16 05:02:39;;;;;;;7.93;3.40;;;;;14.80;102090.00;;;;5051988;28;20196;-75
2023/04/16 05:05:08;;;;;;;7.47;3.05;;;;;14.80;102084.00;;;;5050804;28;20206;-76
2023/04/16 05:07:35;;;;;;;7.78;3.90;;;;;14.80;102083.00;;;;5057886;28;20206;-76
2023/04/16 05:10:04;;;;;;;6.25;3.50;;;;;14.80;102087.00;;;;5053208;28;20203;-76
2023/04/16 05:12:34;;;;;;;8.00;3.58;;;;;14.80;102094.00;;;;5070245;28;20202;-76
2023/04/16 05:15:02;;;;;;;6.90;4.00;;;;;14.90;102090.00;;;;5067484;28;20235;-76
2023/04/16 05:17:29;;;;;;;8.23;3.83;;;;;14.90;102091.00;;;;5061720;28;20196;-76
2023/04/16 05:19:56;;;;;;;7.43;3.85;;;;;14.90;102092.00;;;;5052698;28;20238;-76
2023/04/16 05:22:25;;;;;;;7.70;4.10;;;;;14.90;102094.00;;;;5049617;28;20200;-76
2023/04/16 05:24:52;;;;;;;7.30;4.22;;;;;14.90;102099.00;;;;5052401;28;20666;-75
2023/04/16 05:27:20;;;;;;;6.50;3.90;;;;;14.90;102105.00;;;;5054377;28;20204;-77
2023/04/16 05:29:47;;;;;;;9.32;4.60;;;;;14.90;102102.00;;;;5056976;28;20597;-76
2023/04/16 05:32:15;;;;;;;6.72;3.75;;;;;14.80;102102.00;;;;5059937;28;20218;-75
2023/04/16 05:34:42;;;;;;;6.05;3.75;;;;;14.80;102100.00;;;;5064302;28;20226;-75
2023/04/16 05:37:09;;;;;;;9.30;3.78;;;;;14.80;102092.00;;;;5062012;28;20545;-75
2023/04/16 05:39:47;;;;;;;5.57;4.10;;;;;14.80;102105.00;;;;5052843;28;20205;-75
2023/04/16 05:42:14;;;;;;;6.68;3.88;;;;;14.80;102100.00;;;;5054200;28;20207;-76
2023/04/16 05:44:42;;;;;;;6.90;3.55;;;;;14.80;102104.00;;;;5056925;28;20203;-76
2023/04/16 05:47:09;;;;;;;7.18;4.25;;;;;14.80;102110.00;;;;5055723;28;20202;-75
2023/04/16 05:49:37;;;;;;;9.77;3.80;;;;;14.80;102111.00;;;;5055579;28;20310;-75
2023/04/16 05:52:06;;;;;;;11.25;5.15;;;;;14.80;102103.00;;;;5054060;28;20718;-75
2023/04/16 05:54:33;;;;;;;7.82;4.05;;;;;14.80;102103.00;;;;5056519;28;20428;-76
2023/04/16 05:57:02;;;;;;;6.78;3.70;;;;;14.80;102110.00;;;;5062797;28;20199;-75
2023/04/16 05:59:30;;;;;;;8.25;4.47;;;;;14.80;102103.00;;;;5065969;28;20206;-76
2023/04/16 06:01:57;;;;;;;7.47;4.07;;;;;14.80;102117.00;;;;5055192;28;20239;-75
2023/04/16 06:04:25;;;;;;;8.43;4.22;;;;;14.90;102126.00;;;;5058535;28;20195;-76
2023/04/16 06:06:52;;;;;;;9.00;4.15;;;;;14.90;102125.00;;;;5056639;28;20204;-76
2023/04/16 06:09:20;;;;;;;7.90;4.28;;;;;14.90;102136.00;;;;5049387;28;20219;-75
2023/04/16 06:11:47;;;;;;;9.57;4.75;;;;;14.90;102131.00;;;;5053272;28;20199;-75
2023/04/16 06:14:16;;;;;;;9.05;4.43;;;;;14.90;102127.00;;;;5050268;28;20195;-75
2023/04/16 06:16:43;;;;;;;7.25;3.90;;;;;14.90;102133.00;;;;5051502;28;20235;-75
2023/04/16 06:19:11;;;;;;;7.78;4.22;;;;;14.90;102135.00;;;;5055363;28;20195;-75
2023/04/16 06:21:39;;;;;;;11.55;4.70;;;;;14.90;102141.00;;;;5059671;28;20203;-76
2023/04/16 06:24:06;;;;;;;6.78;3.60;;;;;14.90;102135.00;;;;5053821;28;20210;-76
2023/04/16 06:26:34;;;;;;;9.00;5.30;;;;;14.90;102138.00;;;;5061695;28;20200;-75
2023/04/16 06:29:01;;;;;;;9.75;4.43;;;;;15.00;102142.00;;;;5051123;28;20220;-75
2023/04/16 06:31:30;;;;;;;8.60;4.40;;;;;14.90;102145.00;;;;5049057;28;20196;-76
2023/04/16 06:33:58;;;;;;;7.55;3.88;;;;;15.00;102147.00;;;;5049191;28;20204;-74
2023/04/16 06:36:26;;;;;;;11.00;4.78;;;;;15.00;102151.00;;;;5054359;28;20218;-77
2023/04/16 06:38:53;;;;;;;9.48;4.93;;;;;15.00;102147.00;;;;5051307;28;20673;-77
2023/04/16 06:41:24;;;;;;;10.23;4.40;;;;;15.00;102156.00;;;;5059346;28;20583;-77
2023/04/16 06:43:52;;;;;;;7.72;4.13;;;;;15.00;102157.00;;;;5067552;28;20203;-77
2023/04/16 06:46:19;;;;;;;8.00;4.57;;;;;15.10;102156.00;;;;5052290;28;20203;-77
2023/04/16 06:48:48;;;;;;;12.05;5.35;;;;;15.10;102151.00;;;;5046425;28;20603;-77
2023/04/16 06:51:15;;;;;;;11.95;5.32;;;;;15.10;102152.00;;;;5057277;28;20210;-77
2023/04/16 06:53:42;;;;;;;13.82;4.78;;;;;15.10;102157.00;;;;5062524;28;20204;-76
2023/04/16 06:56:10;;;;;;;8.30;4.22;;;;;15.10;102159.00;;;;5048577;28;20711;-76
2023/04/16 06:58:37;;;;;;;10.88;4.20;;;;;15.10;102157.00;;;;5048988;28;20188;-77
2023/04/16 07:01:05;;;;;;;11.45;4.60;;;;;15.10;102164.00;;;;5064543;28;20199;-76
2023/04/16 07:03:32;;;;;;;10.52;5.30;;;;;15.20;102156.00;;;;5068417;28;20202;-77
2023/04/16 07:06:01;;;;;;;11.82;5.28;;;;;15.20;102172.00;;;;5066840;28;20235;-77
2023/04/16 07:08:29;;;;;;;12.85;5.32;;;;;15.20;102172.00;;;;5054273;28;20214;-78
2023/04/16 07:10:56;;;;;;;7.78;4.75;;;;;15.20;102174.00;;;;5055219;28;20203;-77
2023/04/16 07:13:32;;;;;;;7.53;4.95;;;;;15.20;102181.00;;;;5048618;28;20188;-77
2023/04/16 07:16:00;;;;;;;9.13;4.53;;;;;15.20;102182.00;;;;5048038;28;20231;-77
2023/04/16 07:18:27;;;;;;;8.68;4.68;;;;;15.20;102182.00;;;;5053584;28;20210;-77
2023/04/16 07:20:54;;;;;;;9.18;4.53;;;;;15.20;102185.00;;;;5060022;28;20199;-77
2023/04/16 07:23:23;;;;;;;11.27;5.25;;;;;15.20;102185.00;;;;5058716;28;20293;-77
2023/04/16 07:25:50;;;;;;;7.43;4.72;;;;;15.30;102188.00;;;;5057945;28;20198;-77
2023/04/16 07:28:18;;;;;;;7.75;4.38;;;;;15.30;102186.00;;;;5060639;28;20203;-78
2023/04/16 07:30:45;;;;;;;7.15;4.50;;;;;15.30;102184.00;;;;5056043;28;20317;-77
2023/04/16 07:33:12;;;;;;;7.65;4.82;;;;;15.30;102188.00;;;;5056253;28;20202;-77
2023/04/16 07:35:40;;;;;;;9.82;4.40;;;;;15.30;102193.00;;;;5058447;28;20227;-77
2023/04/16 07:38:07;;;;;;;12.68;4.93;;;;;15.30;102185.00;;;;5057600;28;20198;-77
2023/04/16 07:40:37;;;;;;;9.77;4.63;;;;;15.40;102191.00;;;;5058856;28;20191;-76
2023/04/16 07:43:04;;;;;;;10.10;4.47;;;;;15.40;102192.00;;;;5064858;28;20195;-74
2023/04/16 07:45:31;;;;;;;10.40;4.85;;;;;15.40;102195.00;;;;5050515;28;20219;-74
2023/04/16 07:47:59;;;;;;;10.52;5.25;;;;;15.40;102197.00;;;;5062460;28;20200;-74
2023/04/16 07:50:26;;;;;;;7.68;4.68;;;;;15.50;102208.00;;;;5052104;28;20199;-77
2023/04/16 07:52:54;;;;;;;12.07;5.35;;;;;15.50;102207.00;;;;5067848;28;20187;-77
2023/04/16 07:55:22;;;;;;;12.52;5.47;;;;;15.50;102209.00;;;;5072193;28;20917;-77
2023/04/16 07:57:51;;;;;;;11.85;6.55;;;;;15.50;102216.00;;;;5058999;28;20210;-77
2023/04/16 08:00:18;;;;;;;7.88;4.78;;;;;15.50;102208.00;;;;5064829;28;20610;-77
2023/04/16 08:02:46;;;;;;;9.25;4.95;;;;;15.50;102206.00;;;;5057876;28;20203;-77
2023/04/16 08:05:13;;;;;;;8.85;5.93;;;;;15.60;102218.00;;;;5054430;28;20208;-77
2023/04/16 08:07:40;;;;;;;8.35;5.05;;;;;15.60;102212.00;;;;5062343;28;20202;-77
2023/04/16 08:10:09;;;;;;;9.23;5.88;;;;;15.60;102220.00;;;;5071498;28;20269;-77
2023/04/16 08:12:36;;;;;;;9.25;5.75;;;;;15.60;102222.00;;;;5069222;28;20199;-74
2023/04/16 08:15:06;;;;;;;11.02;5.43;;;;;15.60;102222.00;;;;5071556;28;20203;-74
2023/04/16 08:17:34;;;;;;;9.07;5.20;;;;;15.60;102231.00;;;;5071681;28;20309;-77
2023/04/16 08:20:01;;;;;;;7.13;4.75;;;;;15.60;102236.00;;;;5070804;28;20207;-74
2023/04/16 08:22:28;;;;;;;8.93;4.70;;;;;15.70;102237.00;;;;5070939;28;20692;-74
2023/04/16 08:24:56;;;;;;;8.10;4.88;;;;;15.70;102241.00;;;;5067813;28;20197;-74
2023/04/16 08:27:23;;;;;;;8.13;5.03;;;;;15.70;102238.00;;;;5059031;28;20207;-75
2023/04/16 08:29:50;;;;;;;7.20;4.70;;;;;15.70;102240.00;;;;5061115;28;20227;-75
2023/04/16 08:32:19;;;;;;;5.70;4.35;;;;;15.70;102241.00;;;;5059272;28;20218;-75
2023/04/16 08:34:47;;;;;;;7.53;4.60;;;;;15.80;102247.00;;;;5061808;28;20191;-75
2023/04/16 08:37:14;;;;;;;7.13;4.20;;;;;15.80;102246.00;;;;5057769;28;20219;-75
2023/04/16 08:39:41;;;;;;;6.07;3.95;;;;;15.80;102250.00;;;;5055389;28;20195;-75
2023/04/16 08:42:18;;;;;;;6.07;3.75;;;;;15.80;102248.00;;;;5050790;28;20196;-75
2023/04/16 08:44:49;;;;;;;4.75;3.70;;;;;15.80;102253.00;;;;5051170;28;20196;-75
2023/04/16 08:47:19;;;;;;;5.15;3.67;;;;;15.80;102245.00;;;;5051175;28;20219;-75
2023/04/16 08:49:46;;;;;;;5.57;3.15;;;;;15.90;102242.00;;;;5053137;28;20196;-75
2023/04/16 08:52:18;;;;;;;7.22;3.80;;;;;15.90;102251.00;;;;5051312;28;20199;-75
2023/04/16 08:54:53;;;;;;;4.65;3.38;;;;;15.90;102253.00;;;;5062612;28;20200;-76
2023/04/16 08:57:22;;;;;;;5.20;3.65;;;;;16.00;102250.00;;;;5062225;28;20280;-75
2023/04/16 08:59:49;;;;;;;4.93;3.45;;;;;16.00;102254.00;;;;5056181;28;20195;-75
2023/04/16 09:02:18;;;;;;;4.50;2.88;;;;;16.00;102258.00;;;;5067960;28;20206;-75
2023/04/16 09:04:46;;;;;;;6.15;3.28;;;;;16.10;102255.00;;;;5056714;28;20214;-75
2023/04/16 09:07:14;;;;;;;4.30;2.95;;;;;16.10;102258.00;;;;5062324;28;20207;-75
2023/04/16 09:09:43;;;;;;;4.53;2.70;;;;;16.10;102260.00;;;;5062548;28;20198;-75
2023/04/16 09:12:11;;;;;;;4.03;2.85;;;;;16.10;102262.00;;;;5054759;28;20223;-75
2023/04/16 09:14:40;;;;;;;4.82;3.30;;;;;16.20;102267.00;;;;5068506;28;20205;-75
2023/04/16 09:17:08;;;;;;;5.65;3.40;;;;;16.20;102262.00;;;;5068529;28;20234;-74
2023/04/16 09:19:37;;;;;;;4.40;2.80;;;;;16.20;102266.00;;;;5058118;28;20249;-75
2023/04/16 09:22:05;;;;;;;5.50;3.28;;;;;16.20;102266.00;;;;5063312;28;20209;-75
2023/04/16 09:24:33;;;;;;;5.18;3.03;;;;;16.30;102269.00;;;;5068865;28;20198;-76
2023/04/16 09:27:00;;;;;;;5.47;3.17;;;;;16.30;102264.00;;;;5062526;28;20192;-75
2023/04/16 09:29:38;;;;;;;3.75;2.65;;;;;16.20;102274.00;;;;5051935;28;20230;-75
2023/04/16 09:32:07;;;;;;;4.10;2.63;;;;;16.30;102277.00;;;;5054257;28;20249;-75
2023/04/16 09:34:35;;;;;;;3.72;2.40;;;;;16.30;102285.00;;;;5069816;28;20199;-75
2023/04/16 09:37:19;;;;;;;3.70;3.10;;;;;16.20;102290.00;;;;5058532;28;20239;-75
2023/04/16 09:39:53;;;;;;;3.88;2.55;;;;;16.30;102290.00;;;;5060101;28;20230;-75
2023/04/16 09:42:23;;;;;;;3.13;2.33;;;;;16.40;102290.00;;;;5066068;28;20553;-75
2023/04/16 09:44:51;;;;;;;4.15;2.97;;;;;16.40;102293.00;;;;5052300;28;20577;-74
2023/04/16 09:47:18;;;;;;;4.20;3.20;;;;;16.40;102295.00;;;;5061694;28;20732;-75
2023/04/16 09:49:46;;;;;;;2.90;2.10;;;;;16.40;102302.00;;;;5069434;28;20194;-75
2023/04/16 09:52:15;;;;;;;4.47;2.63;;;;;16.40;102305.00;;;;5053860;28;20219;-75
2023/04/16 09:54:49;;;;;;;3.83;2.58;;;;;16.40;102300.00;;;;5059843;28;20244;-75
2023/04/16 09:57:20;;;;;;;2.88;2.20;;;;;16.40;102303.00;;;;5054345;28;20215;-74
2023/04/16 09:59:48;;;;;;;3.65;2.15;;;;;16.40;102305.00;;;;5051682;28;20196;-75
2023/04/16 10:02:30;;;;;;;;;;;;;;;;;;;;;
2023/04/16 10:04:57;;;;;;;2.88;2.38;;;;;16.50;102311.00;;;;5052427;28;20203;-75
2023/04/16 10:07:29;;;;;;;3.70;2.35;;;;;16.40;102303.00;;;;5053922;28;20204;-75
2023/04/16 10:09:58;;;;;;;4.35;2.50;;;;;16.40;102303.00;;;;5052995;28;20202;-75
2023/04/16 10:12:27;;;;;;;3.58;2.72;;;;;16.50;102305.00;;;;5061697;28;20195;-74
2023/04/16 10:14:55;;;;;;;4.35;2.10;;;;;16.50;102305.00;;;;5050993;28;20600;-75
2023/04/16 10:17:22;;;;;;;4.65;2.80;;;;;16.50;102310.00;;;;5061074;28;20224;-75
2023/04/16 10:19:50;;;;;;;5.00;2.65;;;;;16.50;102315.00;;;;5058597;28;20206;-75
2023/04/16 10:22:18;;;;;;;2.22;1.95;;;;;16.50;102313.00;;;;5061710;28;20691;-75
2023/04/16 10:24:46;;;;;;;3.38;2.45;;;;;16.50;102314.00;;;;5068376;28;20203;-75
2023/04/16 10:27:16;;;;;;;4.32;3.08;;;;;16.60;102313.00;;;;5065491;28;20209;-75
2023/04/16 10:29:44;;;;;;;4.88;2.53;;;;;16.60;102312.00;;;;5068400;28;20253;-75
2023/04/16 10:32:12;;;;;;;5.22;4.00;;;;;16.60;102316.00;;;;5068397;28;20603;-76
2023/04/16 10:34:40;;;;;;;3.85;3.10;;;;;16.60;102308.00;;;;5066824;28;20207;-75
2023/04/16 10:37:07;;;;;;;3.75;2.47;;;;;16.70;102308.00;;;;5068544;28;20233;-75
2023/04/16 10:39:37;;;;;;;3.28;2.60;;;;;16.70;102307.00;;;;5051997;28;20573;-74
2023/04/16 10:42:08;;;;;;;3.88;2.88;;;;;16.80;102315.00;;;;5048181;28;20293;-74
2023/04/16 10:44:37;;;;;;;4.13;2.67;;;;;16.80;102310.00;;;;5054893;28;20194;-75
2023/04/16 10:47:11;;;;;;;4.43;2.25;;;;;16.80;102311.00;;;;5056856;28;20656;-75
2023/04/16 10:49:39;;;;;;;3.70;2.70;;;;;16.90;102310.00;;;;5056612;28;20204;-75
2023/04/16 10:52:11;;;;;;;6.28;2.95;;;;;16.90;102311.00;;;;5056181;28;20583;-75
2023/04/16 10:54:40;;;;;;;4.47;3.38;;;;;17.00;102313.00;;;;5062622;28;20199;-75
2023/04/16 10:57:09;;;;;;;6.22;2.63;;;;;17.00;102318.00;;;;5053345;28;20229;-75
2023/04/16 10:59:39;;;;;;;6.00;3.30;;;;;17.00;102315.00;;;;5063333;28;20203;-75
2023/04/16 11:02:09;;;;;;;4.32;2.88;;;;;17.00;102311.00;;;;5051575;28;20300;-75
2023/04/16 11:04:37;;;;;;;5.70;3.38;;;;;17.10;102317.00;;;;5051115;28;20580;-74
2023/04/16 11:07:14;;;;;;;4.95;3.00;;;;;17.10;102314.00;;;;5058318;28;20209;-75
2023/04/16 11:09:52;;;;;;;5.88;3.28;;;;;17.10;102327.00;;;;5056691;28;20667;-75
2023/04/16 11:12:21;;;;;;;4.22;3.42;;;;;17.10;102313.00;;;;5065969;28;20909;-75
2023/04/16 11:14:51;;;;;;;6.82;3.50;;;;;17.20;102318.00;;;;5053114;28;20195;-75
2023/04/16 11:17:19;;;;;;;6.15;4.13;;;;;17.20;102313.00;;;;5067950;28;20222;-75
2023/04/16 11:19:46;;;;;;;5.40;3.92;;;;;17.20;102315.00;;;;5067958;28;20206;-74
2023/04/16 11:22:15;;;;;;;5.88;3.92;;;;;17.20;102315.00;;;;5067821;28;20676;-75
2023/04/16 11:24:43;;;;;;;6.82;4.47;;;;;17.30;102320.00;;;;5065285;28;20671;-76
2023/04/16 11:27:13;;;;;;;7.88;5.20;;;;;17.20;102323.00;;;;5055176;28;20195;-76
2023/04/16 11:29:41;;;;;;;8.20;5.38;;;;;17.30;102325.00;;;;5054523;28;20234;-77
2023/04/16 11:32:20;;;;;;;10.75;4.82;;;;;17.30;102325.00;;;;5048524;28;20297;-76
2023/04/16 11:34:47;;;;;;;10.88;5.00;;;;;17.30;102326.00;;;;5058186;28;20297;-76
2023/04/16 11:37:15;;;;;;;7.75;4.68;;;;;17.30;102328.00;;;;5054320;28;20218;-76
2023/04/16 11:39:49;;;;;;;8.98;5.68;;;;;17.20;102325.00;;;;5062598;28;20199;-77
2023/04/16 11:42:21;;;;;;;7.82;4.82;;;;;17.30;102322.00;;;;5048000;28;20241;-77
2023/04/16 11:44:53;;;;;;;9.20;5.60;;;;;17.30;102332.00;;;;5060280;28;20196;-76
2023/04/16 11:47:22;;;;;;;9.02;5.78;;;;;17.30;102326.00;;;;5057993;28;20199;-76
2023/04/16 11:49:49;;;;;;;8.77;4.88;;;;;17.30;102329.00;;;;5059414;28;20580;-76
2023/04/16 11:52:27;;;;;;;10.10;5.32;;;;;17.30;102324.00;;;;5051724;28;20183;-76
2023/04/16 11:54:54;;;;;;;10.32;4.75;;;;;17.40;102327.00;;;;5051279;28;20202;-76
2023/04/16 11:57:26;;;;;;;8.45;5.03;;;;;17.50;102329.00;;;;5055127;28;20219;-76
2023/04/16 11:59:54;;;;;;;11.40;5.30;;;;;17.50;102327.00;;;;5060238;28;20990;-77
2023/04/16 12:02:37;;;;;;;11.23;5.57;;;;;17.50;102331.00;;;;5053938;28;20210;-78
2023/04/16 12:05:05;;;;;;;8.98;5.28;;;;;17.60;102332.00;;;;5049017;28;20502;-77
2023/04/16 12:07:43;;;;;;;8.88;5.22;;;;;17.60;102331.00;;;;5049170;28;20244;-76
2023/04/16 12:10:11;;;;;;;12.48;6.25;;;;;17.70;102337.00;;;;5061876;28;20198;-76
2023/04/16 12:12:38;;;;;;;7.60;5.75;;;;;17.70;102335.00;;;;5067028;28;20194;-76
2023/04/16 12:15:06;;;;;;;11.10;4.93;;;;;17.70;102336.00;;;;5063127;28;20688;-76